This is the latest recevied weather packets stored in our database for station/object KCXW. If no packets are shown the sender has not sent any weather packets the latest 10 day(s).
| Time | Temp. | Humidity | Pressure | Rain* | Wind** | Luminosity | Snow |
|---|---|---|---|---|---|---|---|
| 1777893808 | 15° C | 93% | 1012.2 hPa | - | - | - | - |
| 1777893211 | 15° C | 87% | 1012.2 hPa | - | - | - | - |
| 1777892606 | 15° C | 87% | 1012.2 hPa | - | - | - | - |
| 1777892011 | 15° C | 93% | 1012.5 hPa | - | - | - | - |
| 1777891408 | 15° C | 93% | 1012.5 hPa | - | - | - | - |
| 1777890809 | 15° C | 93% | 1012.5 hPa | - | - | - | - |
| 1777890206 | 15° C | 93% | 1012.5 hPa | - | - | - | - |
| 1777889605 | 15.56° C | 82% | 1012.9 hPa | - | - | - | - |
| 1777889006 | 15.56° C | 82% | 1012.9 hPa | - | - | - | - |
| 1777888411 | 15° C | 93% | 1012.9 hPa | - | - | - | - |
| 1777887808 | 15° C | 93% | 1012.9 hPa | - | - | - | - |
| 1777887207 | 15.56° C | 87% | 1012.9 hPa | - | - | - | - |
| 1777886611 | 15.56° C | 87% | 1012.9 hPa | - | - | - | - |
| 1777886009 | 15° C | 93% | 1012.9 hPa | - | - | - | - |
| 1777885411 | 15° C | 93% | 1012.9 hPa | - | - | - | - |
| 1777884808 | 17.78° C | 72% | 1012.9 hPa | - | - | - | - |
| 1777884207 | 17.78° C | 72% | 1012.9 hPa | - | - | - | - |
| 1777883609 | 16.67° C | 82% | 1012.9 hPa | - | - | - | - |
| 1777883009 | 16.67° C | 82% | 1012.9 hPa | - | - | - | - |
| 1777882408 | 16.67° C | 77% | 1013.2 hPa | - | - | - | - |
| 1777881812 | 16.67° C | 77% | 1013.2 hPa | - | - | - | - |
| 1777881209 | 17.78° C | 72% | 1013.2 hPa | - | - | - | - |
| 1777880609 | 17.78° C | 72% | 1013.2 hPa | - | - | - | - |
| 1777880011 | 17.78° C | 77% | 1013.2 hPa | - | - | - | - |
| 1777879405 | 17.78° C | 72% | 1013.5 hPa | - | - | - | - |
* Rain since midnight (hover to see other rain measurements)
** Current wind speed in m/s (hover to see current wind gust speed)